Time;durP1;ratioP1;P1;durP2;ratioP2;P2;SDS_P1;SDS_P2;PMS_P1;PMS_P2;Temp;Humidity;BMP_temperature;BMP_pressure;BME280_temperature;BME280_humidity;BME280_pressure;Samples;Min_cycle;Max_cycle;Signal;HPM_P1;HPM_P2
2024/02/18 00:01:48;;;;;;;21.08;11.65;;;;;;;;;;6199634;28;20050;-82
2024/02/18 00:04:50;;;;;;;24.58;11.75;;;;;;;;;;6216723;28;20049;-81
2024/02/18 00:07:52;;;;;;;23.38;10.80;;;;;;;;;;6198345;28;20057;-81
2024/02/18 00:10:53;;;;;;;23.23;10.55;;;;;;;;;;6202788;28;20112;-79
2024/02/18 00:13:55;;;;;;;25.95;12.00;;;;;;;;;;6200280;28;20398;-79
2024/02/18 00:16:57;;;;;;;21.88;11.52;;;;;;;;;;6205193;28;20478;-81
2024/02/18 00:19:59;;;;;;;23.85;11.40;;;;;;;;;;6205124;28;20503;-78
2024/02/18 00:23:01;;;;;;;24.00;11.80;;;;;;;;;;6218379;28;20073;-82
2024/02/18 00:26:03;;;;;;;24.17;12.85;;;;;;;;;;6210341;28;20042;-81
2024/02/18 00:29:08;;;;;;;27.00;12.30;;;;;;;;;;6201714;28;20038;-80
2024/02/18 00:32:09;;;;;;;27.02;12.05;;;;;;;;;;6199020;28;20049;-80
2024/02/18 00:35:11;;;;;;;25.05;11.32;;;;;;;;;;6196341;28;20042;-81
2024/02/18 00:38:13;;;;;;;24.83;11.88;;;;;;;;;;6223153;28;20022;-78
2024/02/18 00:41:15;;;;;;;24.90;12.50;;;;;;;;;;6226032;28;20126;-79
2024/02/18 00:44:17;;;;;;;23.17;11.23;;;;;;;;;;6203378;28;20278;-82
2024/02/18 00:47:19;;;;;;;29.70;12.23;;;;;;;;;;6201525;28;20042;-81
2024/02/18 00:50:20;;;;;;;27.83;12.10;;;;;;;;;;6202352;28;20045;-79
2024/02/18 00:53:22;;;;;;;25.92;12.93;;;;;;;;;;6192231;28;20064;-82
2024/02/18 00:56:25;;;;;;;25.02;11.93;;;;;;;;;;6199882;28;20708;-79
2024/02/18 00:59:27;;;;;;;25.73;11.77;;;;;;;;;;6203825;28;20060;-80
2024/02/18 01:02:29;;;;;;;26.92;11.70;;;;;;;;;;6199403;28;20046;-80
2024/02/18 01:05:32;;;;;;;;;;;;;;;;;;6217693;28;20046;-78
2024/02/18 01:08:33;;;;;;;25.63;12.57;;;;;;;;;;6193242;28;19926;-78
2024/02/18 01:11:35;;;;;;;25.75;11.80;;;;;;;;;;6194602;28;20173;-79
2024/02/18 01:14:37;;;;;;;32.00;14.70;;;;;;;;;;6202638;28;20060;-80
2024/02/18 01:17:38;;;;;;;28.58;13.77;;;;;;;;;;6199298;28;20058;-79
2024/02/18 01:20:40;;;;;;;33.72;14.45;;;;;;;;;;6202489;28;20065;-80
2024/02/18 01:23:45;;;;;;;26.05;13.30;;;;;;;;;;6217991;28;20077;-79
2024/02/18 01:26:46;;;;;;;32.55;14.18;;;;;;;;;;6199978;28;20100;-81
2024/02/18 01:29:48;;;;;;;40.33;14.75;;;;;;;;;;6205303;28;20512;-81
2024/02/18 01:32:50;;;;;;;32.53;13.40;;;;;;;;;;6207905;28;20060;-81
2024/02/18 01:35:51;;;;;;;32.83;13.68;;;;;;;;;;6206323;28;20531;-79
2024/02/18 01:38:53;;;;;;;37.85;15.30;;;;;;;;;;6211466;28;20051;-80
2024/02/18 01:41:55;;;;;;;33.67;13.60;;;;;;;;;;6193656;28;20046;-79
2024/02/18 01:44:57;;;;;;;44.95;15.65;;;;;;;;;;6197922;28;20045;-80
2024/02/18 01:47:59;;;;;;;39.53;16.00;;;;;;;;;;6205092;28;20046;-82
2024/02/18 01:51:01;;;;;;;43.13;15.23;;;;;;;;;;6204494;28;20199;-79
2024/02/18 01:54:05;;;;;;;48.43;16.43;;;;;;;;;;6184647;28;20053;-78
2024/02/18 01:57:07;;;;;;;;;;;;;;;;;;6182940;28;20449;-79
2024/02/18 02:00:13;;;;;;;36.55;14.80;;;;;;;;;;6206683;28;20292;-80
2024/02/18 02:03:15;;;;;;;37.17;14.20;;;;;;;;;;6216461;28;20200;-81
2024/02/18 02:06:18;;;;;;;44.65;15.30;;;;;;;;;;6198655;28;20057;-80
2024/02/18 02:09:20;;;;;;;41.78;15.55;;;;;;;;;;6214170;28;20389;-82
2024/02/18 02:12:22;;;;;;;38.00;14.88;;;;;;;;;;6198979;28;20192;-82
2024/02/18 02:15:24;;;;;;;40.67;13.80;;;;;;;;;;6211764;28;20050;-82
2024/02/18 02:18:26;;;;;;;43.33;14.82;;;;;;;;;;6192863;28;20826;-81
2024/02/18 02:21:28;;;;;;;38.80;13.77;;;;;;;;;;6210549;28;20416;-83
2024/02/18 02:24:30;;;;;;;39.38;12.70;;;;;;;;;;6223126;28;20491;-80
2024/02/18 02:27:37;;;;;;;56.50;13.82;;;;;;;;;;6208386;28;20046;-81
2024/02/18 02:30:39;;;;;;;40.95;14.00;;;;;;;;;;6209916;28;20038;-79
2024/02/18 02:33:44;;;;;;;36.95;14.10;;;;;;;;;;6207905;28;20784;-82
2024/02/18 02:36:46;;;;;;;34.75;13.55;;;;;;;;;;6206818;28;20057;-80
2024/02/18 02:39:50;;;;;;;38.33;12.68;;;;;;;;;;6202476;28;20054;-82
2024/02/18 02:42:52;;;;;;;;;;;;;;;;;;6204030;28;20058;-82
2024/02/18 02:45:53;;;;;;;35.97;12.35;;;;;;;;;;6211297;28;20317;-79
2024/02/18 02:48:55;;;;;;;33.00;12.15;;;;;;;;;;6207932;28;20392;-82
2024/02/18 02:51:57;;;;;;;40.40;13.05;;;;;;;;;;6212798;28;20061;-83
2024/02/18 02:54:59;;;;;;;38.95;13.32;;;;;;;;;;6200289;28;20046;-81
2024/02/18 02:58:00;;;;;;;35.00;13.18;;;;;;;;;;6206352;28;20054;-78
2024/02/18 03:01:02;;;;;;;33.83;14.90;;;;;;;;;;6224718;28;20127;-82
2024/02/18 03:04:04;;;;;;;40.00;13.35;;;;;;;;;;6208320;28;20108;-82
2024/02/18 03:07:07;;;;;;;39.63;14.63;;;;;;;;;;6201384;28;20050;-82
2024/02/18 03:10:09;;;;;;;44.03;15.98;;;;;;;;;;6194030;28;20152;-81
2024/02/18 03:13:11;;;;;;;33.58;13.30;;;;;;;;;;6211205;28;20073;-79
2024/02/18 03:16:13;;;;;;;38.95;14.60;;;;;;;;;;6190316;28;20081;-83
2024/02/18 03:19:15;;;;;;;39.47;14.43;;;;;;;;;;6209367;28;20105;-81
2024/02/18 03:22:21;;;;;;;42.95;12.77;;;;;;;;;;6208140;28;20052;-82
2024/02/18 03:25:22;;;;;;;37.88;12.40;;;;;;;;;;6198030;28;20492;-82
2024/02/18 03:28:25;;;;;;;41.03;12.80;;;;;;;;;;6208387;28;20054;-79
2024/02/18 03:31:27;;;;;;;30.10;12.60;;;;;;;;;;6225657;28;20033;-79
2024/02/18 03:34:30;;;;;;;24.50;10.73;;;;;;;;;;6228859;28;20050;-80
2024/02/18 03:37:33;;;;;;;43.15;11.60;;;;;;;;;;6221605;28;20234;-82
2024/02/18 03:40:35;;;;;;;43.70;11.20;;;;;;;;;;6202993;28;20130;-79
2024/02/18 03:43:39;;;;;;;37.08;10.95;;;;;;;;;;6200289;28;20050;-79
2024/02/18 03:46:40;;;;;;;27.98;11.15;;;;;;;;;;6220360;28;20045;-82
2024/02/18 03:49:42;;;;;;;59.17;12.07;;;;;;;;;;6235604;28;20605;-82
2024/02/18 03:52:44;;;;;;;58.65;12.00;;;;;;;;;;6214973;28;20065;-83
2024/02/18 03:55:46;;;;;;;65.50;12.70;;;;;;;;;;6210546;28;20057;-82
2024/02/18 03:58:48;;;;;;;59.33;12.45;;;;;;;;;;6207948;28;20500;-82
2024/02/18 04:01:50;;;;;;;57.05;12.50;;;;;;;;;;6214577;28;20054;-80
2024/02/18 04:04:51;;;;;;;80.53;12.68;;;;;;;;;;6208423;28;20052;-78
2024/02/18 04:07:53;;;;;;;61.70;12.05;;;;;;;;;;6206550;28;20097;-83
2024/02/18 04:10:55;;;;;;;66.32;12.20;;;;;;;;;;6195813;28;20523;-82
2024/02/18 04:13:57;;;;;;;54.88;12.35;;;;;;;;;;6222499;28;20049;-82
2024/02/18 04:16:59;;;;;;;24.55;11.60;;;;;;;;;;6207239;28;20156;-82
2024/02/18 04:20:01;;;;;;;30.33;11.30;;;;;;;;;;6205230;28;20120;-81
2024/02/18 04:23:03;;;;;;;38.38;11.48;;;;;;;;;;6201838;28;20042;-81
2024/02/18 04:26:05;;;;;;;69.07;11.23;;;;;;;;;;6213018;28;20193;-80
2024/02/18 04:29:08;;;;;;;33.45;10.30;;;;;;;;;;6204287;28;20042;-81
2024/02/18 04:32:11;;;;;;;40.37;11.80;;;;;;;;;;6202438;28;20105;-82
2024/02/18 04:35:13;;;;;;;38.53;12.02;;;;;;;;;;6204745;28;20128;-79
2024/02/18 04:38:15;;;;;;;34.72;12.32;;;;;;;;;;6208727;28;20060;-80
2024/02/18 04:41:17;;;;;;;37.03;11.43;;;;;;;;;;6204179;28;20172;-82
2024/02/18 04:44:18;;;;;;;29.88;11.32;;;;;;;;;;6204051;28;20046;-82
2024/02/18 04:47:22;;;;;;;40.15;12.02;;;;;;;;;;6205091;28;20109;-83
2024/02/18 04:50:24;;;;;;;32.00;10.82;;;;;;;;;;6209507;28;20050;-80
2024/02/18 04:53:25;;;;;;;30.73;10.50;;;;;;;;;;6189044;28;20049;-79
2024/02/18 04:56:27;;;;;;;35.00;10.50;;;;;;;;;;6215764;28;20467;-81
2024/02/18 04:59:29;;;;;;;36.72;10.13;;;;;;;;;;6208032;28;20053;-82
2024/02/18 05:02:31;;;;;;;37.13;9.55;;;;;;;;;;6213204;28;20045;-80
2024/02/18 05:05:33;;;;;;;29.03;10.10;;;;;;;;;;6206657;28;20053;-80
2024/02/18 05:08:35;;;;;;;54.08;10.80;;;;;;;;;;6221854;28;20393;-80
2024/02/18 05:11:37;;;;;;;48.00;10.70;;;;;;;;;;6209198;28;20046;-80
2024/02/18 05:14:39;;;;;;;30.10;10.25;;;;;;;;;;6205720;28;20412;-80
2024/02/18 05:17:40;;;;;;;31.95;10.40;;;;;;;;;;6213822;28;20050;-79
2024/02/18 05:20:42;;;;;;;28.63;11.10;;;;;;;;;;6212194;28;20607;-83
2024/02/18 05:23:44;;;;;;;33.13;9.43;;;;;;;;;;6209206;28;20172;-81
2024/02/18 05:26:46;;;;;;;34.30;10.98;;;;;;;;;;6219165;28;20049;-82
2024/02/18 05:29:47;;;;;;;40.28;10.98;;;;;;;;;;6211317;28;20057;-81
2024/02/18 05:32:49;;;;;;;49.47;11.43;;;;;;;;;;6210370;28;20054;-79
2024/02/18 05:35:51;;;;;;;47.00;10.90;;;;;;;;;;6213419;28;20049;-82
2024/02/18 05:38:53;;;;;;;41.17;10.32;;;;;;;;;;6220526;28;20526;-78
2024/02/18 05:41:55;;;;;;;65.57;10.77;;;;;;;;;;6236607;28;20046;-81
2024/02/18 05:44:56;;;;;;;65.93;10.75;;;;;;;;;;6210534;28;20401;-80
2024/02/18 05:47:58;;;;;;;42.03;9.93;;;;;;;;;;6239716;28;20057;-77
2024/02/18 05:51:00;;;;;;;28.48;8.75;;;;;;;;;;6236974;28;20038;-80
2024/02/18 05:54:02;;;;;;;35.63;9.60;;;;;;;;;;6212731;28;20173;-79
2024/02/18 05:57:05;;;;;;;35.72;9.10;;;;;;;;;;6214886;28;20042;-81
2024/02/18 06:00:07;;;;;;;62.28;10.65;;;;;;;;;;6209856;28;20526;-79
2024/02/18 06:03:10;;;;;;;51.15;10.25;;;;;;;;;;6209616;28;20060;-82
2024/02/18 06:06:13;;;;;;;37.50;9.32;;;;;;;;;;6224591;28;20077;-83
2024/02/18 06:09:16;;;;;;;25.85;8.88;;;;;;;;;;6202363;28;20047;-82
2024/02/18 06:12:18;;;;;;;39.67;10.60;;;;;;;;;;6207450;28;20042;-79
2024/02/18 06:15:20;;;;;;;47.63;11.10;;;;;;;;;;6205379;28;20158;-83
2024/02/18 06:18:22;;;;;;;31.85;10.07;;;;;;;;;;6209668;28;20069;-81
2024/02/18 06:21:24;;;;;;;30.55;9.80;;;;;;;;;;6189763;28;21805;-84
2024/02/18 06:24:29;;;;;;;37.75;10.57;;;;;;;;;;6206127;28;20136;-80
2024/02/18 06:27:31;;;;;;;41.42;10.95;;;;;;;;;;6209850;28;20053;-82
2024/02/18 06:30:35;;;;;;;40.20;11.30;;;;;;;;;;6198809;28;20060;-80
2024/02/18 06:33:36;;;;;;;;;;;;;;;;;;6209476;28;20054;-83
2024/02/18 06:36:38;;;;;;;30.52;9.93;;;;;;;;;;6209248;28;20008;-82
2024/02/18 06:39:40;;;;;;;46.63;11.25;;;;;;;;;;6210557;28;20061;-83
2024/02/18 06:42:43;;;;;;;40.22;10.60;;;;;;;;;;6213539;28;20054;-84
2024/02/18 06:45:45;;;;;;;28.67;9.85;;;;;;;;;;6213638;28;20042;-84
2024/02/18 06:48:51;;;;;;;31.73;9.77;;;;;;;;;;6212449;28;20053;-83
2024/02/18 06:51:53;;;;;;;29.67;10.18;;;;;;;;;;6210412;28;20049;-84
2024/02/18 06:54:55;;;;;;;37.40;9.65;;;;;;;;;;6212582;28;20046;-83
2024/02/18 06:57:57;;;;;;;33.92;10.10;;;;;;;;;;6216941;28;20046;-83
2024/02/18 07:00:58;;;;;;;25.05;10.63;;;;;;;;;;6203998;28;20306;-85
2024/02/18 07:04:01;;;;;;;28.40;9.77;;;;;;;;;;6229823;28;20071;-82
2024/02/18 07:07:03;;;;;;;25.17;9.60;;;;;;;;;;6210420;28;20061;-83
2024/02/18 07:10:05;;;;;;;30.42;10.23;;;;;;;;;;6210778;28;20122;-85
2024/02/18 07:13:08;;;;;;;;;;;;;;;;;;6229826;28;20050;-83
2024/02/18 07:16:10;;;;;;;26.25;9.07;;;;;;;;;;6213321;28;19925;-83
2024/02/18 07:19:12;;;;;;;34.67;9.18;;;;;;;;;;6231778;28;20046;-82
2024/02/18 07:22:17;;;;;;;28.83;8.93;;;;;;;;;;6214231;28;20069;-81
2024/02/18 07:25:19;;;;;;;34.10;9.07;;;;;;;;;;6229867;28;20053;-82
2024/02/18 07:28:21;;;;;;;25.90;8.93;;;;;;;;;;6247763;28;20038;-81
2024/02/18 07:31:23;;;;;;;68.47;11.50;;;;;;;;;;6230232;28;20050;-81
2024/02/18 07:34:25;;;;;;;25.52;9.90;;;;;;;;;;6235546;28;20061;-81
2024/02/18 07:37:26;;;;;;;26.50;8.93;;;;;;;;;;6229269;28;20053;-80
2024/02/18 07:40:28;;;;;;;38.85;9.65;;;;;;;;;;6203616;28;20129;-83
2024/02/18 07:43:31;;;;;;;25.52;8.82;;;;;;;;;;6212371;28;20508;-84
2024/02/18 07:46:33;;;;;;;72.55;12.15;;;;;;;;;;6208055;28;20610;-82
2024/02/18 07:49:35;;;;;;;60.53;12.75;;;;;;;;;;6226447;28;20053;-80
2024/02/18 07:52:36;;;;;;;48.60;12.13;;;;;;;;;;6221772;28;20123;-83
2024/02/18 07:55:38;;;;;;;34.22;11.02;;;;;;;;;;6208547;28;20133;-84
2024/02/18 07:58:40;;;;;;;64.20;12.90;;;;;;;;;;6210864;28;20068;-82
2024/02/18 08:01:44;;;;;;;51.45;11.13;;;;;;;;;;6221826;28;20096;-83
2024/02/18 08:04:46;;;;;;;40.92;10.50;;;;;;;;;;6211433;28;20127;-83
2024/02/18 08:07:49;;;;;;;31.08;10.73;;;;;;;;;;6206176;28;20053;-83
2024/02/18 08:10:50;;;;;;;25.08;10.52;;;;;;;;;;6206160;28;20093;-84
2024/02/18 08:13:52;;;;;;;26.02;10.80;;;;;;;;;;6221163;28;20049;-79
2024/02/18 08:16:56;;;;;;;32.22;11.05;;;;;;;;;;6216516;28;20081;-81
2024/02/18 08:19:57;;;;;;;23.42;10.35;;;;;;;;;;6204492;28;20046;-84
2024/02/18 08:22:59;;;;;;;25.15;10.23;;;;;;;;;;6199943;28;20046;-82
2024/02/18 08:26:01;;;;;;;23.50;9.35;;;;;;;;;;6213692;28;20157;-84
2024/02/18 08:29:03;;;;;;;26.35;12.10;;;;;;;;;;6202075;28;20046;-83
2024/02/18 08:32:06;;;;;;;22.65;10.77;;;;;;;;;;6215797;28;20052;-81
2024/02/18 08:35:08;;;;;;;20.92;8.77;;;;;;;;;;6203680;28;20052;-82
2024/02/18 08:38:11;;;;;;;22.10;8.90;;;;;;;;;;6209737;28;21464;-81
2024/02/18 08:41:13;;;;;;;21.90;8.35;;;;;;;;;;6206498;28;20049;-83
2024/02/18 08:44:16;;;;;;;21.73;7.85;;;;;;;;;;6205829;28;20042;-83
2024/02/18 08:47:17;;;;;;;20.07;9.10;;;;;;;;;;6204061;28;20062;-80
2024/02/18 08:50:19;;;;;;;19.95;10.10;;;;;;;;;;6225362;28;20061;-81
2024/02/18 08:53:21;;;;;;;24.23;9.18;;;;;;;;;;6198080;28;20046;-80
2024/02/18 08:56:23;;;;;;;34.45;15.30;;;;;;;;;;6203548;28;20049;-81
2024/02/18 08:59:25;;;;;;;30.98;11.90;;;;;;;;;;6210554;28;20447;-81
2024/02/18 09:02:26;;;;;;;21.10;10.80;;;;;;;;;;6207248;28;20073;-81
2024/02/18 09:05:28;;;;;;;40.70;20.65;;;;;;;;;;6203472;28;20054;-82
2024/02/18 09:08:30;;;;;;;36.13;18.20;;;;;;;;;;6204485;28;20523;-86
2024/02/18 09:11:32;;;;;;;34.42;19.90;;;;;;;;;;6196953;28;20717;-85
2024/02/18 09:14:34;;;;;;;19.25;9.32;;;;;;;;;;6204597;28;20053;-84
2024/02/18 09:17:36;;;;;;;79.95;40.63;;;;;;;;;;6214000;28;20041;-83
2024/02/18 09:20:38;;;;;;;19.50;8.93;;;;;;;;;;6189722;28;20045;-84
2024/02/18 09:23:40;;;;;;;31.98;16.35;;;;;;;;;;6192767;28;20452;-83
2024/02/18 09:26:41;;;;;;;46.42;22.63;;;;;;;;;;6222957;28;20080;-83
2024/02/18 09:29:43;;;;;;;42.85;20.65;;;;;;;;;;6209793;28;20058;-83
2024/02/18 09:32:45;;;;;;;84.70;41.47;;;;;;;;;;6222880;28;20058;-81
2024/02/18 09:35:47;;;;;;;27.63;13.95;;;;;;;;;;6207267;28;20112;-83
2024/02/18 09:38:51;;;;;;;18.60;9.15;;;;;;;;;;6203995;28;20133;-81
2024/02/18 09:41:53;;;;;;;33.80;17.15;;;;;;;;;;6229304;28;20042;-81
2024/02/18 09:44:56;;;;;;;28.58;13.75;;;;;;;;;;6242700;28;20029;-81
2024/02/18 09:48:00;;;;;;;65.55;26.88;;;;;;;;;;6210633;28;20054;-82
2024/02/18 09:51:04;;;;;;;24.90;12.13;;;;;;;;;;6204364;28;20504;-82
2024/02/18 09:54:06;;;;;;;18.67;9.63;;;;;;;;;;6209977;28;20073;-81
2024/02/18 09:57:08;;;;;;;21.30;11.20;;;;;;;;;;6199825;28;20093;-81
2024/02/18 10:00:10;;;;;;;13.70;6.03;;;;;;;;;;6196786;28;20507;-80
2024/02/18 10:03:14;;;;;;;23.17;11.07;;;;;;;;;;6230045;28;20049;-80
2024/02/18 10:06:17;;;;;;;12.65;6.63;;;;;;;;;;6216829;28;20050;-82
2024/02/18 10:09:18;;;;;;;17.60;8.95;;;;;;;;;;6187469;28;20177;-82
2024/02/18 10:12:20;;;;;;;10.65;6.32;;;;;;;;;;6211290;28;20134;-81
2024/02/18 10:15:22;;;;;;;15.10;7.10;;;;;;;;;;6220198;28;20058;-81
2024/02/18 10:18:24;;;;;;;12.55;7.22;;;;;;;;;;6209042;28;20057;-82
2024/02/18 10:21:26;;;;;;;9.52;4.72;;;;;;;;;;6185566;28;20057;-82
2024/02/18 10:24:29;;;;;;;8.60;4.43;;;;;;;;;;6198952;28;20550;-83
2024/02/18 10:27:31;;;;;;;9.75;4.70;;;;;;;;;;6205113;28;20053;-82
2024/02/18 10:30:35;;;;;;;10.68;5.55;;;;;;;;;;6213055;28;20045;-84
2024/02/18 10:33:38;;;;;;;15.32;8.20;;;;;;;;;;6210910;28;20121;-84
2024/02/18 10:36:46;;;;;;;7.40;4.00;;;;;;;;;;6208082;28;20524;-83
2024/02/18 10:39:50;;;;;;;10.55;4.95;;;;;;;;;;6210617;28;20049;-81
2024/02/18 10:42:54;;;;;;;9.93;5.25;;;;;;;;;;6185190;28;20060;-83
2024/02/18 10:45:58;;;;;;;6.55;3.80;;;;;;;;;;6186416;28;20049;-82
2024/02/18 10:49:13;;;;;;;10.15;4.22;;;;;;;;;;6205885;28;20503;-82
2024/02/18 10:52:21;;;;;;;7.35;3.70;;;;;;;;;;6199295;28;20054;-82
2024/02/18 10:55:45;;;;;;;4.88;2.65;;;;;;;;;;6200903;28;20141;-82
2024/02/18 10:58:56;;;;;;;9.02;3.22;;;;;;;;;;6220993;28;20071;-82
2024/02/18 11:02:02;;;;;;;10.25;3.83;;;;;;;;;;6206114;28;20653;-84
2024/02/18 11:05:06;;;;;;;4.93;2.70;;;;;;;;;;6207792;28;20422;-82
2024/02/18 11:08:08;;;;;;;;;;;;;;;;;;6206001;28;20121;-83
2024/02/18 11:11:12;;;;;;;4.35;2.58;;;;;;;;;;6196942;28;19949;-84
2024/02/18 11:14:16;;;;;;;6.63;3.63;;;;;;;;;;6221702;28;20061;-83
2024/02/18 11:17:19;;;;;;;6.03;3.00;;;;;;;;;;6223895;28;20046;-83
2024/02/18 11:20:21;;;;;;;6.70;3.10;;;;;;;;;;6208177;28;20479;-83
2024/02/18 11:23:24;;;;;;;5.35;2.80;;;;;;;;;;6207022;28;20440;-82
2024/02/18 11:26:25;;;;;;;4.15;2.70;;;;;;;;;;6208582;28;20129;-83
2024/02/18 11:29:28;;;;;;;5.47;3.10;;;;;;;;;;6207739;28;20056;-84
2024/02/18 11:32:30;;;;;;;5.53;3.72;;;;;;;;;;6208861;28;20054;-84
2024/02/18 11:35:32;;;;;;;5.70;3.80;;;;;;;;;;6209079;28;20049;-82
2024/02/18 11:38:33;;;;;;;10.63;5.32;;;;;;;;;;6206759;28;20539;-82
2024/02/18 11:41:36;;;;;;;8.23;4.28;;;;;;;;;;6204660;28;20069;-80
2024/02/18 11:44:43;;;;;;;4.35;3.00;;;;;;;;;;6206124;28;20048;-82
2024/02/18 11:47:50;;;;;;;6.30;3.65;;;;;;;;;;6207476;28;20053;-82
2024/02/18 11:50:52;;;;;;;6.85;4.07;;;;;;;;;;6189882;28;20068;-82
2024/02/18 11:53:55;;;;;;;7.57;3.88;;;;;;;;;;6204601;28;20190;-82
2024/02/18 11:56:57;;;;;;;5.80;3.30;;;;;;;;;;6202481;28;20125;-82
2024/02/18 11:59:58;;;;;;;6.03;3.90;;;;;;;;;;6210656;28;20053;-82
2024/02/18 12:03:00;;;;;;;8.60;4.40;;;;;;;;;;6219248;28;20057;-80
2024/02/18 12:06:04;;;;;;;6.95;3.88;;;;;;;;;;6204239;28;20057;-84
2024/02/18 12:09:14;;;;;;;8.35;3.50;;;;;;;;;;6210638;28;20053;-82
2024/02/18 12:12:16;;;;;;;5.93;3.10;;;;;;;;;;6208375;28;20046;-82
2024/02/18 12:15:27;;;;;;;7.93;4.20;;;;;;;;;;6224174;28;20152;-82
2024/02/18 12:18:29;;;;;;;6.07;3.63;;;;;;;;;;6224220;28;20046;-80
2024/02/18 12:21:31;;;;;;;4.30;3.17;;;;;;;;;;6203724;28;20223;-82
2024/02/18 12:24:33;;;;;;;6.03;3.47;;;;;;;;;;6216159;28;20056;-81
2024/02/18 12:27:35;;;;;;;4.53;2.83;;;;;;;;;;6209807;28;20133;-81
2024/02/18 12:30:40;;;;;;;5.10;2.83;;;;;;;;;;6198045;28;20143;-79
2024/02/18 12:33:42;;;;;;;3.85;2.80;;;;;;;;;;6229718;28;20057;-83
2024/02/18 12:36:44;;;;;;;4.43;2.87;;;;;;;;;;6217609;28;20068;-80
2024/02/18 12:39:47;;;;;;;6.68;2.65;;;;;;;;;;6230240;28;20049;-82
2024/02/18 12:42:50;;;;;;;3.47;2.75;;;;;;;;;;6210945;28;20058;-81
2024/02/18 12:46:11;;;;;;;4.00;2.65;;;;;;;;;;6200783;28;20042;-81
2024/02/18 12:49:14;;;;;;;3.13;2.37;;;;;;;;;;6208333;28;20166;-84
2024/02/18 12:52:16;;;;;;;3.38;2.58;;;;;;;;;;6196776;28;20593;-82
2024/02/18 12:55:20;;;;;;;5.63;2.95;;;;;;;;;;6203823;28;20052;-81
2024/02/18 12:58:22;;;;;;;3.85;2.15;;;;;;;;;;6218168;28;20140;-83
2024/02/18 13:01:24;;;;;;;7.93;5.10;;;;;;;;;;6202023;28;20557;-81
2024/02/18 13:04:27;;;;;;;4.47;2.17;;;;;;;;;;6205217;28;20042;-82
2024/02/18 13:07:30;;;;;;;4.65;2.80;;;;;;;;;;6194727;28;20057;-80
2024/02/18 13:10:32;;;;;;;2.25;1.85;;;;;;;;;;6207608;28;20127;-81
2024/02/18 13:13:34;;;;;;;4.32;2.13;;;;;;;;;;6205981;28;20117;-82
2024/02/18 13:16:36;;;;;;;3.42;1.90;;;;;;;;;;6215673;28;20046;-82
2024/02/18 13:19:43;;;;;;;5.75;2.65;;;;;;;;;;6207837;28;20056;-81
2024/02/18 13:22:47;;;;;;;3.40;1.73;;;;;;;;;;6203642;28;20058;-83
2024/02/18 13:25:49;;;;;;;3.60;2.10;;;;;;;;;;6207379;28;20054;-82
2024/02/18 13:28:52;;;;;;;3.35;2.25;;;;;;;;;;6196840;28;20053;-82
2024/02/18 13:31:54;;;;;;;2.33;1.80;;;;;;;;;;6222506;28;20296;-82
2024/02/18 13:34:56;;;;;;;3.45;1.92;;;;;;;;;;6232881;28;20030;-80
2024/02/18 13:37:58;;;;;;;3.35;1.92;;;;;;;;;;6212970;28;20061;-81
2024/02/18 13:41:02;;;;;;;1.88;1.63;;;;;;;;;;6201609;28;20046;-81
2024/02/18 13:44:04;;;;;;;2.58;1.77;;;;;;;;;;6208563;28;20049;-81
2024/02/18 13:47:05;;;;;;;4.13;2.08;;;;;;;;;;6225404;28;20042;-82
2024/02/18 13:50:09;;;;;;;2.58;1.70;;;;;;;;;;6209135;28;20143;-82
2024/02/18 13:53:11;;;;;;;4.95;1.90;;;;;;;;;;6204381;28;20046;-81
2024/02/18 13:56:13;;;;;;;3.63;1.85;;;;;;;;;;6212992;28;20073;-82
2024/02/18 13:59:16;;;;;;;3.92;1.92;;;;;;;;;;6211736;28;20105;-82
2024/02/18 14:02:18;;;;;;;3.03;1.92;;;;;;;;;;6222469;28;20085;-81
2024/02/18 14:05:19;;;;;;;7.88;2.60;;;;;;;;;;6199770;28;20033;-82
2024/02/18 14:08:22;;;;;;;11.75;5.70;;;;;;;;;;6207231;28;20544;-81
2024/02/18 14:11:23;;;;;;;2.45;2.00;;;;;;;;;;6212223;28;20113;-81
2024/02/18 14:14:25;;;;;;;2.38;1.65;;;;;;;;;;6188839;28;20061;-81
2024/02/18 14:17:28;;;;;;;2.60;1.80;;;;;;;;;;6212627;28;20053;-81
2024/02/18 14:20:31;;;;;;;3.20;1.98;;;;;;;;;;6207545;28;20420;-82
2024/02/18 14:23:32;;;;;;;6.97;2.58;;;;;;;;;;6189497;28;20043;-82
2024/02/18 14:26:34;;;;;;;4.30;2.35;;;;;;;;;;6226539;28;20065;-82
2024/02/18 14:29:36;;;;;;;4.15;1.73;;;;;;;;;;6224430;28;20046;-82
2024/02/18 14:32:37;;;;;;;7.95;2.60;;;;;;;;;;6225544;28;20057;-82
2024/02/18 14:35:39;;;;;;;2.80;1.70;;;;;;;;;;6221118;28;20045;-82
2024/02/18 14:38:40;;;;;;;2.85;1.48;;;;;;;;;;6212575;28;20050;-81
2024/02/18 14:41:42;;;;;;;5.32;2.83;;;;;;;;;;6212013;28;20062;-82
2024/02/18 14:44:44;;;;;;;4.93;1.95;;;;;;;;;;6209894;28;20058;-80
2024/02/18 14:47:46;;;;;;;2.90;1.52;;;;;;;;;;6214024;28;20127;-83
2024/02/18 14:50:48;;;;;;;5.38;3.42;;;;;;;;;;6192721;28;20050;-83
2024/02/18 14:53:50;;;;;;;2.20;1.60;;;;;;;;;;6210816;28;20057;-84
2024/02/18 14:56:52;;;;;;;3.55;1.80;;;;;;;;;;6210888;28;20524;-84
2024/02/18 14:59:54;;;;;;;2.60;2.13;;;;;;;;;;6208041;28;20054;-84
2024/02/18 15:02:57;;;;;;;;;;;;;;;;;;6224420;28;20415;-84
2024/02/18 15:05:59;;;;;;;3.13;1.80;;;;;;;;;;6188899;28;19933;-80
2024/02/18 15:09:01;;;;;;;5.63;2.67;;;;;;;;;;6210054;28;20433;-84
2024/02/18 15:12:03;;;;;;;3.60;1.90;;;;;;;;;;6206138;28;20401;-84
2024/02/18 15:15:05;;;;;;;11.73;4.50;;;;;;;;;;6203868;28;20056;-82
2024/02/18 15:18:08;;;;;;;6.60;3.28;;;;;;;;;;6204816;28;20068;-84
2024/02/18 15:21:11;;;;;;;5.13;3.00;;;;;;;;;;6203574;28;20049;-83
2024/02/18 15:24:13;;;;;;;6.85;3.30;;;;;;;;;;6206227;28;20061;-83
2024/02/18 15:27:15;;;;;;;11.57;4.97;;;;;;;;;;6203796;28;20046;-83
2024/02/18 15:30:17;;;;;;;9.57;5.07;;;;;;;;;;6196637;28;20046;-83
2024/02/18 15:33:18;;;;;;;9.07;3.70;;;;;;;;;;6218175;28;20046;-80
2024/02/18 15:36:20;;;;;;;10.82;4.45;;;;;;;;;;6200647;28;20039;-82
2024/02/18 15:39:22;;;;;;;6.18;2.70;;;;;;;;;;6204101;28;20061;-83
2024/02/18 15:42:24;;;;;;;4.10;2.92;;;;;;;;;;6204689;28;20050;-81
2024/02/18 15:45:26;;;;;;;5.13;3.50;;;;;;;;;;6207210;28;20109;-80
2024/02/18 15:48:27;;;;;;;4.78;3.28;;;;;;;;;;6207850;28;20126;-82
2024/02/18 15:51:30;;;;;;;5.35;3.28;;;;;;;;;;6207220;28;20126;-81
2024/02/18 15:54:31;;;;;;;5.80;4.30;;;;;;;;;;6186084;28;20049;-78
2024/02/18 15:57:33;;;;;;;7.57;4.97;;;;;;;;;;6217821;28;20125;-83
2024/02/18 16:00:35;;;;;;;6.68;3.95;;;;;;;;;;6199248;28;20050;-80
2024/02/18 16:03:40;;;;;;;5.75;3.70;;;;;;;;;;6202506;28;20056;-85
2024/02/18 16:06:42;;;;;;;4.90;3.63;;;;;;;;;;6205247;28;20053;-82
2024/02/18 16:09:49;;;;;;;7.35;4.85;;;;;;;;;;6182931;28;20053;-80
2024/02/18 16:12:51;;;;;;;8.10;5.72;;;;;;;;;;6219921;28;20061;-80
2024/02/18 16:15:53;;;;;;;5.70;3.60;;;;;;;;;;6207038;28;20059;-81
2024/02/18 16:18:56;;;;;;;6.35;4.70;;;;;;;;;;6220988;28;20182;-81
2024/02/18 16:21:58;;;;;;;9.88;4.65;;;;;;;;;;6187441;28;20050;-80
2024/02/18 16:25:00;;;;;;;7.72;4.25;;;;;;;;;;6203296;28;20054;-82
2024/02/18 16:28:01;;;;;;;9.90;4.47;;;;;;;;;;6205027;28;20048;-81
2024/02/18 16:31:06;;;;;;;8.30;4.57;;;;;;;;;;6204064;28;20097;-81
2024/02/18 16:34:07;;;;;;;7.35;4.65;;;;;;;;;;6204690;28;20765;-79
2024/02/18 16:37:09;;;;;;;7.35;4.40;;;;;;;;;;6206834;28;20152;-77
2024/02/18 16:40:11;;;;;;;5.00;4.00;;;;;;;;;;6206516;28;20971;-78
2024/02/18 16:43:14;;;;;;;7.72;4.75;;;;;;;;;;6210228;28;20192;-78
2024/02/18 16:46:15;;;;;;;7.38;4.60;;;;;;;;;;6224023;28;20478;-79
2024/02/18 16:49:17;;;;;;;9.00;4.57;;;;;;;;;;6233801;28;20057;-79
2024/02/18 16:52:19;;;;;;;6.78;5.00;;;;;;;;;;6204451;28;20046;-80
2024/02/18 16:55:21;;;;;;;7.65;4.97;;;;;;;;;;6222462;28;20060;-80
2024/02/18 16:58:23;;;;;;;8.45;5.47;;;;;;;;;;6209731;28;20446;-81
2024/02/18 17:01:24;;;;;;;8.18;5.18;;;;;;;;;;6217481;28;20111;-83
2024/02/18 17:04:26;;;;;;;8.32;5.25;;;;;;;;;;6212988;28;20628;-83
2024/02/18 17:07:28;;;;;;;13.38;6.35;;;;;;;;;;6212587;28;20604;-81
2024/02/18 17:10:31;;;;;;;9.05;5.07;;;;;;;;;;6211217;28;20042;-80
2024/02/18 17:13:33;;;;;;;7.50;5.28;;;;;;;;;;6210112;28;20057;-81
2024/02/18 17:16:36;;;;;;;7.57;4.95;;;;;;;;;;6206550;28;20053;-81
2024/02/18 17:19:38;;;;;;;;;;;;;;;;;;6236781;28;20041;-82
2024/02/18 17:22:40;;;;;;;9.88;5.00;;;;;;;;;;6235162;28;19918;-79
2024/02/18 17:25:42;;;;;;;7.72;5.40;;;;;;;;;;6231296;28;20099;-77
2024/02/18 17:28:43;;;;;;;6.65;5.07;;;;;;;;;;6233084;28;20050;-83
2024/02/18 17:31:45;;;;;;;7.28;5.40;;;;;;;;;;6228002;28;20145;-83
2024/02/18 17:34:47;;;;;;;12.57;5.18;;;;;;;;;;6209880;28;20046;-83
2024/02/18 17:37:49;;;;;;;7.65;5.28;;;;;;;;;;6204371;28;20054;-78
2024/02/18 17:40:51;;;;;;;8.20;5.72;;;;;;;;;;6199052;28;20507;-79
2024/02/18 17:43:52;;;;;;;11.00;6.68;;;;;;;;;;6217417;28;20129;-81
2024/02/18 17:46:54;;;;;;;7.95;5.00;;;;;;;;;;6215171;28;20133;-78
2024/02/18 17:49:56;;;;;;;9.43;5.43;;;;;;;;;;6200729;28;20050;-78
2024/02/18 17:52:57;;;;;;;9.55;5.10;;;;;;;;;;6210478;28;20138;-78
2024/02/18 17:55:59;;;;;;;9.05;5.75;;;;;;;;;;6205293;28;20054;-79
2024/02/18 17:59:06;;;;;;;7.10;5.18;;;;;;;;;;6214889;28;20102;-78